Renville, Minnesota
Current Conditions -  °F | °C
As of 3:33 PM on Monday 24 Nov 2014 (Local Time) from KOVL Reporting Station
Broken Clouds Broken Clouds  
Wind Chill: -3°   Ceiling: 600
Heat Index: 16°   Visibility: 7mi
Dew Point: 10°   Wind: 25mph
Humidity: 79%   Direction: 310°NW
Pressure: 29.71"   Gusts: 39mph
Location:  44.79°N, 95.21°W
Report Text: KOVL 242133Z AUTO 31022G34KT 7SM BKN006 M09/M12 A2971 RMK AO2
Loading
Personal Weather Stations






























Interactive Weather Map New forecast layout! Learn more

10-Day Weather Forecast

Advertisements
Track Severe Weather on mobile